sensor_id;sensor_type;location;lat;lon;timestamp;temperature;humidity
51559;DHT22;61650;48.882;2.092;2023-03-04T00:00:29;-1.40;86.40
51559;DHT22;61650;48.882;2.092;2023-03-04T00:02:55;-1.40;86.30
51559;DHT22;61650;48.882;2.092;2023-03-04T00:05:20;-1.40;86.00
51559;DHT22;61650;48.882;2.092;2023-03-04T00:07:46;-1.40;86.10
51559;DHT22;61650;48.882;2.092;2023-03-04T00:10:12;-1.40;86.20
51559;DHT22;61650;48.882;2.092;2023-03-04T00:12:37;-1.40;86.40
51559;DHT22;61650;48.882;2.092;2023-03-04T00:15:03;-1.50;86.40
51559;DHT22;61650;48.882;2.092;2023-03-04T00:17:29;-1.50;86.40
51559;DHT22;61650;48.882;2.092;2023-03-04T00:19:56;-1.60;86.40
51559;DHT22;61650;48.882;2.092;2023-03-04T00:22:22;-1.60;87.00
51559;DHT22;61650;48.882;2.092;2023-03-04T00:24:47;-1.60;87.30
51559;DHT22;61650;48.882;2.092;2023-03-04T00:27:13;-1.50;88.10
51559;DHT22;61650;48.882;2.092;2023-03-04T00:29:39;-1.50;88.10
51559;DHT22;61650;48.882;2.092;2023-03-04T00:32:04;-1.40;87.90
51559;DHT22;61650;48.882;2.092;2023-03-04T00:34:30;-1.50;87.50
51559;DHT22;61650;48.882;2.092;2023-03-04T00:36:56;-1.50;88.20
51559;DHT22;61650;48.882;2.092;2023-03-04T00:39:26;-1.40;88.00
51559;DHT22;61650;48.882;2.092;2023-03-04T00:41:53;-1.40;87.60
51559;DHT22;61650;48.882;2.092;2023-03-04T00:44:18;-1.40;87.80
51559;DHT22;61650;48.882;2.092;2023-03-04T00:46:44;-1.30;89.00
51559;DHT22;61650;48.882;2.092;2023-03-04T00:49:10;-1.20;88.90
51559;DHT22;61650;48.882;2.092;2023-03-04T00:51:35;-1.20;88.80
51559;DHT22;61650;48.882;2.092;2023-03-04T00:54:01;-0.90;89.30
51559;DHT22;61650;48.882;2.092;2023-03-04T00:56:27;-0.70;89.20
51559;DHT22;61650;48.882;2.092;2023-03-04T00:58:53;-0.70;88.20
51559;DHT22;61650;48.882;2.092;2023-03-04T01:01:19;-0.60;87.80
51559;DHT22;61650;48.882;2.092;2023-03-04T01:03:44;-0.50;87.80
51559;DHT22;61650;48.882;2.092;2023-03-04T01:06:10;-0.40;87.40
51559;DHT22;61650;48.882;2.092;2023-03-04T01:08:36;-0.20;87.40
51559;DHT22;61650;48.882;2.092;2023-03-04T01:11:02;-0.10;86.40
51559;DHT22;61650;48.882;2.092;2023-03-04T01:13:28;-0.10;86.20
51559;DHT22;61650;48.882;2.092;2023-03-04T01:15:54;-0.20;86.10
51559;DHT22;61650;48.882;2.092;2023-03-04T01:18:20;-0.20;85.40
51559;DHT22;61650;48.882;2.092;2023-03-04T01:20:46;-0.40;84.60
51559;DHT22;61650;48.882;2.092;2023-03-04T01:23:11;-0.60;84.40
51559;DHT22;61650;48.882;2.092;2023-03-04T01:25:37;-0.80;84.60
51559;DHT22;61650;48.882;2.092;2023-03-04T01:28:03;-1.00;85.30
51559;DHT22;61650;48.882;2.092;2023-03-04T01:30:28;-1.20;85.70
51559;DHT22;61650;48.882;2.092;2023-03-04T01:32:54;-1.30;86.30
51559;DHT22;61650;48.882;2.092;2023-03-04T01:35:20;-1.40;86.70
51559;DHT22;61650;48.882;2.092;2023-03-04T01:37:45;-1.40;86.60
51559;DHT22;61650;48.882;2.092;2023-03-04T01:40:12;-1.50;87.00
51559;DHT22;61650;48.882;2.092;2023-03-04T01:42:38;-1.50;86.50
51559;DHT22;61650;48.882;2.092;2023-03-04T01:45:05;-1.60;86.40
51559;DHT22;61650;48.882;2.092;2023-03-04T01:47:32;-1.70;87.60
51559;DHT22;61650;48.882;2.092;2023-03-04T01:50:01;-1.70;87.70
51559;DHT22;61650;48.882;2.092;2023-03-04T01:52:28;-1.70;87.20
51559;DHT22;61650;48.882;2.092;2023-03-04T01:54:53;-1.70;87.40
51559;DHT22;61650;48.882;2.092;2023-03-04T01:57:22;-1.80;87.00
51559;DHT22;61650;48.882;2.092;2023-03-04T02:00:16;-1.80;87.00
51559;DHT22;61650;48.882;2.092;2023-03-04T02:02:44;-1.80;87.00
51559;DHT22;61650;48.882;2.092;2023-03-04T02:05:10;-1.90;87.20
51559;DHT22;61650;48.882;2.092;2023-03-04T02:07:36;-1.90;87.20
51559;DHT22;61650;48.882;2.092;2023-03-04T02:10:03;-1.90;87.30
51559;DHT22;61650;48.882;2.092;2023-03-04T02:12:29;-1.90;87.80
51559;DHT22;61650;48.882;2.092;2023-03-04T02:14:54;-1.90;87.50
51559;DHT22;61650;48.882;2.092;2023-03-04T02:17:26;-2.00;87.50
51559;DHT22;61650;48.882;2.092;2023-03-04T02:19:57;-2.00;87.80
51559;DHT22;61650;48.882;2.092;2023-03-04T02:22:26;-2.10;87.90
51559;DHT22;61650;48.882;2.092;2023-03-04T02:24:55;-2.00;88.10
51559;DHT22;61650;48.882;2.092;2023-03-04T02:27:24;-2.00;88.40
51559;DHT22;61650;48.882;2.092;2023-03-04T02:29:50;-2.10;88.50
51559;DHT22;61650;48.882;2.092;2023-03-04T02:32:16;-2.00;88.50
51559;DHT22;61650;48.882;2.092;2023-03-04T02:34:47;-2.00;88.30
51559;DHT22;61650;48.882;2.092;2023-03-04T02:37:14;-2.10;88.00
51559;DHT22;61650;48.882;2.092;2023-03-04T02:39:43;-2.10;88.00
51559;DHT22;61650;48.882;2.092;2023-03-04T02:42:09;-2.10;88.10
51559;DHT22;61650;48.882;2.092;2023-03-04T02:44:39;-2.00;88.60
51559;DHT22;61650;48.882;2.092;2023-03-04T02:47:07;-2.10;88.30
51559;DHT22;61650;48.882;2.092;2023-03-04T02:49:35;-2.10;89.40
51559;DHT22;61650;48.882;2.092;2023-03-04T02:52:13;-2.10;88.80
51559;DHT22;61650;48.882;2.092;2023-03-04T02:54:39;-2.10;88.30
51559;DHT22;61650;48.882;2.092;2023-03-04T02:57:08;-2.20;88.60
51559;DHT22;61650;48.882;2.092;2023-03-04T02:59:35;-2.10;88.50
51559;DHT22;61650;48.882;2.092;2023-03-04T03:02:01;-2.20;88.20
51559;DHT22;61650;48.882;2.092;2023-03-04T03:04:27;-2.10;88.60
51559;DHT22;61650;48.882;2.092;2023-03-04T03:06:53;-2.20;88.50
51559;DHT22;61650;48.882;2.092;2023-03-04T03:09:18;-2.20;88.60
51559;DHT22;61650;48.882;2.092;2023-03-04T03:11:44;-2.20;88.20
51559;DHT22;61650;48.882;2.092;2023-03-04T03:14:10;-2.10;88.20
51559;DHT22;61650;48.882;2.092;2023-03-04T03:16:36;-2.10;88.00
51559;DHT22;61650;48.882;2.092;2023-03-04T03:19:02;-2.20;88.00
51559;DHT22;61650;48.882;2.092;2023-03-04T03:21:28;-2.20;88.10
51559;DHT22;61650;48.882;2.092;2023-03-04T03:23:54;-2.20;88.10
51559;DHT22;61650;48.882;2.092;2023-03-04T03:26:20;-2.20;88.30
51559;DHT22;61650;48.882;2.092;2023-03-04T03:28:46;-2.20;88.50
51559;DHT22;61650;48.882;2.092;2023-03-04T03:31:12;-2.20;88.60
51559;DHT22;61650;48.882;2.092;2023-03-04T03:33:38;-2.10;88.50
51559;DHT22;61650;48.882;2.092;2023-03-04T03:36:04;-2.20;88.50
51559;DHT22;61650;48.882;2.092;2023-03-04T03:38:30;-2.20;88.40
51559;DHT22;61650;48.882;2.092;2023-03-04T03:40:55;-2.30;88.40
51559;DHT22;61650;48.882;2.092;2023-03-04T03:43:21;-2.40;88.10
51559;DHT22;61650;48.882;2.092;2023-03-04T03:45:47;-2.30;88.60
51559;DHT22;61650;48.882;2.092;2023-03-04T03:48:12;-2.30;88.50
51559;DHT22;61650;48.882;2.092;2023-03-04T03:50:38;-2.30;88.90
51559;DHT22;61650;48.882;2.092;2023-03-04T03:53:04;-2.20;89.00
51559;DHT22;61650;48.882;2.092;2023-03-04T03:55:30;-2.20;88.60
51559;DHT22;61650;48.882;2.092;2023-03-04T03:57:55;-2.20;88.50
51559;DHT22;61650;48.882;2.092;2023-03-04T04:00:21;-2.20;88.20
51559;DHT22;61650;48.882;2.092;2023-03-04T04:02:47;-2.30;87.70
51559;DHT22;61650;48.882;2.092;2023-03-04T04:05:13;-2.40;87.90
51559;DHT22;61650;48.882;2.092;2023-03-04T04:07:39;-2.50;87.90
51559;DHT22;61650;48.882;2.092;2023-03-04T04:10:06;-2.60;88.20
51559;DHT22;61650;48.882;2.092;2023-03-04T04:12:32;-2.50;88.50
51559;DHT22;61650;48.882;2.092;2023-03-04T04:14:57;-2.60;88.00
51559;DHT22;61650;48.882;2.092;2023-03-04T04:17:23;-2.70;88.20
51559;DHT22;61650;48.882;2.092;2023-03-04T04:19:49;-2.60;88.30
51559;DHT22;61650;48.882;2.092;2023-03-04T04:22:16;-2.60;88.20
51559;DHT22;61650;48.882;2.092;2023-03-04T04:24:43;-2.70;88.10
51559;DHT22;61650;48.882;2.092;2023-03-04T04:27:09;-2.70;88.10
51559;DHT22;61650;48.882;2.092;2023-03-04T04:29:35;-2.80;88.10
51559;DHT22;61650;48.882;2.092;2023-03-04T04:32:00;-2.70;88.40
51559;DHT22;61650;48.882;2.092;2023-03-04T04:34:26;-2.70;88.20
51559;DHT22;61650;48.882;2.092;2023-03-04T04:36:51;-2.70;88.10
51559;DHT22;61650;48.882;2.092;2023-03-04T04:39:18;-2.60;88.00
51559;DHT22;61650;48.882;2.092;2023-03-04T04:41:45;-2.60;87.90
51559;DHT22;61650;48.882;2.092;2023-03-04T04:44:11;-2.70;87.80
51559;DHT22;61650;48.882;2.092;2023-03-04T04:46:37;-2.70;88.00
51559;DHT22;61650;48.882;2.092;2023-03-04T04:49:04;-2.70;88.00
51559;DHT22;61650;48.882;2.092;2023-03-04T04:51:30;-2.60;87.60
51559;DHT22;61650;48.882;2.092;2023-03-04T04:53:58;-2.70;87.60
51559;DHT22;61650;48.882;2.092;2023-03-04T04:56:24;-2.80;87.40
51559;DHT22;61650;48.882;2.092;2023-03-04T04:58:52;-2.80;87.60
51559;DHT22;61650;48.882;2.092;2023-03-04T05:01:18;-2.80;87.80
51559;DHT22;61650;48.882;2.092;2023-03-04T05:03:44;-2.70;87.80
51559;DHT22;61650;48.882;2.092;2023-03-04T05:06:11;-2.80;87.50
51559;DHT22;61650;48.882;2.092;2023-03-04T05:08:37;-2.80;87.30
51559;DHT22;61650;48.882;2.092;2023-03-04T05:11:05;-2.80;87.40
51559;DHT22;61650;48.882;2.092;2023-03-04T05:13:31;-2.90;87.50
51559;DHT22;61650;48.882;2.092;2023-03-04T05:15:57;-2.90;87.80
51559;DHT22;61650;48.882;2.092;2023-03-04T05:18:24;-2.90;88.00
51559;DHT22;61650;48.882;2.092;2023-03-04T05:20:56;-2.80;87.90
51559;DHT22;61650;48.882;2.092;2023-03-04T05:23:22;-2.90;87.50
51559;DHT22;61650;48.882;2.092;2023-03-04T05:25:48;-3.00;87.80
51559;DHT22;61650;48.882;2.092;2023-03-04T05:28:15;-2.90;87.90
51559;DHT22;61650;48.882;2.092;2023-03-04T05:30:42;-3.00;88.10
51559;DHT22;61650;48.882;2.092;2023-03-04T05:33:09;-3.00;87.70
51559;DHT22;61650;48.882;2.092;2023-03-04T05:35:36;-2.90;87.80
51559;DHT22;61650;48.882;2.092;2023-03-04T05:38:03;-3.00;87.50
51559;DHT22;61650;48.882;2.092;2023-03-04T05:40:29;-3.10;87.20
51559;DHT22;61650;48.882;2.092;2023-03-04T05:42:54;-3.00;87.30
51559;DHT22;61650;48.882;2.092;2023-03-04T05:45:21;-3.00;87.50
51559;DHT22;61650;48.882;2.092;2023-03-04T05:47:47;-3.00;87.50
51559;DHT22;61650;48.882;2.092;2023-03-04T05:50:12;-3.00;87.70
51559;DHT22;61650;48.882;2.092;2023-03-04T05:52:38;-3.00;87.70
51559;DHT22;61650;48.882;2.092;2023-03-04T05:55:04;-2.90;87.70
51559;DHT22;61650;48.882;2.092;2023-03-04T05:57:29;-3.00;87.50
51559;DHT22;61650;48.882;2.092;2023-03-04T05:59:55;-2.90;87.60
51559;DHT22;61650;48.882;2.092;2023-03-04T06:02:20;-2.80;87.70
51559;DHT22;61650;48.882;2.092;2023-03-04T06:04:46;-2.80;87.90
51559;DHT22;61650;48.882;2.092;2023-03-04T06:07:12;-2.70;87.90
51559;DHT22;61650;48.882;2.092;2023-03-04T06:09:37;-2.50;87.70
51559;DHT22;61650;48.882;2.092;2023-03-04T06:12:03;-2.40;87.40
51559;DHT22;61650;48.882;2.092;2023-03-04T06:14:29;-2.40;87.40
51559;DHT22;61650;48.882;2.092;2023-03-04T06:16:54;-2.40;86.80
51559;DHT22;61650;48.882;2.092;2023-03-04T06:19:20;-2.40;86.60
51559;DHT22;61650;48.882;2.092;2023-03-04T06:21:46;-2.50;86.60
51559;DHT22;61650;48.882;2.092;2023-03-04T06:24:12;-2.40;87.10
51559;DHT22;61650;48.882;2.092;2023-03-04T06:26:37;-2.40;87.00
51559;DHT22;61650;48.882;2.092;2023-03-04T06:29:04;-2.40;87.10
51559;DHT22;61650;48.882;2.092;2023-03-04T06:31:30;-2.40;87.00
51559;DHT22;61650;48.882;2.092;2023-03-04T06:33:56;-2.40;87.10
51559;DHT22;61650;48.882;2.092;2023-03-04T06:36:21;-2.40;87.10
51559;DHT22;61650;48.882;2.092;2023-03-04T06:38:47;-2.40;86.70
51559;DHT22;61650;48.882;2.092;2023-03-04T06:41:13;-2.40;87.00
51559;DHT22;61650;48.882;2.092;2023-03-04T06:43:39;-2.40;86.70
51559;DHT22;61650;48.882;2.092;2023-03-04T06:46:06;-2.60;87.10
51559;DHT22;61650;48.882;2.092;2023-03-04T06:48:32;-2.60;87.80
51559;DHT22;61650;48.882;2.092;2023-03-04T06:50:58;-2.60;87.70
51559;DHT22;61650;48.882;2.092;2023-03-04T06:53:23;-2.60;87.00
51559;DHT22;61650;48.882;2.092;2023-03-04T06:55:49;-2.60;87.40
51559;DHT22;61650;48.882;2.092;2023-03-04T06:58:15;-2.70;87.80
51559;DHT22;61650;48.882;2.092;2023-03-04T07:00:42;-2.70;88.30
51559;DHT22;61650;48.882;2.092;2023-03-04T07:03:10;-2.60;88.30
51559;DHT22;61650;48.882;2.092;2023-03-04T07:05:35;-2.60;88.30
51559;DHT22;61650;48.882;2.092;2023-03-04T07:08:01;-2.60;87.90
51559;DHT22;61650;48.882;2.092;2023-03-04T07:10:27;-2.60;88.00
51559;DHT22;61650;48.882;2.092;2023-03-04T07:12:52;-2.60;88.40
51559;DHT22;61650;48.882;2.092;2023-03-04T07:15:18;-2.60;88.50
51559;DHT22;61650;48.882;2.092;2023-03-04T07:17:43;-2.60;88.50
51559;DHT22;61650;48.882;2.092;2023-03-04T07:20:09;-2.60;88.40
51559;DHT22;61650;48.882;2.092;2023-03-04T07:22:35;-2.50;88.70
51559;DHT22;61650;48.882;2.092;2023-03-04T07:25:01;-2.40;88.90
51559;DHT22;61650;48.882;2.092;2023-03-04T07:27:27;-2.40;88.30
51559;DHT22;61650;48.882;2.092;2023-03-04T07:29:52;-2.40;88.60
51559;DHT22;61650;48.882;2.092;2023-03-04T07:32:18;-2.30;88.10
51559;DHT22;61650;48.882;2.092;2023-03-04T07:34:43;-2.20;87.90
51559;DHT22;61650;48.882;2.092;2023-03-04T07:37:09;-2.20;88.00
51559;DHT22;61650;48.882;2.092;2023-03-04T07:39:34;-2.10;88.20
51559;DHT22;61650;48.882;2.092;2023-03-04T07:42:00;-2.10;88.20
51559;DHT22;61650;48.882;2.092;2023-03-04T07:44:26;-2.00;88.60
51559;DHT22;61650;48.882;2.092;2023-03-04T07:46:51;-2.00;88.50
51559;DHT22;61650;48.882;2.092;2023-03-04T07:49:17;-1.80;88.70
51559;DHT22;61650;48.882;2.092;2023-03-04T07:51:43;-1.60;88.40
51559;DHT22;61650;48.882;2.092;2023-03-04T07:54:08;-1.60;87.80
51559;DHT22;61650;48.882;2.092;2023-03-04T07:56:34;-1.40;87.90
51559;DHT22;61650;48.882;2.092;2023-03-04T07:59:00;-1.30;87.90
51559;DHT22;61650;48.882;2.092;2023-03-04T08:01:28;-1.10;87.60
51559;DHT22;61650;48.882;2.092;2023-03-04T08:03:54;-0.90;87.40
51559;DHT22;61650;48.882;2.092;2023-03-04T08:06:21;-0.70;87.00
51559;DHT22;61650;48.882;2.092;2023-03-04T08:08:48;-0.50;86.90
51559;DHT22;61650;48.882;2.092;2023-03-04T08:11:19;-0.40;86.30
51559;DHT22;61650;48.882;2.092;2023-03-04T08:13:46;-0.30;86.40
51559;DHT22;61650;48.882;2.092;2023-03-04T08:16:16;-0.20;86.40
51559;DHT22;61650;48.882;2.092;2023-03-04T08:18:48;0.00;86.40
51559;DHT22;61650;48.882;2.092;2023-03-04T08:21:16;0.10;86.70
51559;DHT22;61650;48.882;2.092;2023-03-04T08:23:44;0.30;86.50
51559;DHT22;61650;48.882;2.092;2023-03-04T08:26:34;0.50;84.80
51559;DHT22;61650;48.882;2.092;2023-03-04T08:29:04;0.60;84.20
51559;DHT22;61650;48.882;2.092;2023-03-04T08:31:30;0.80;83.40
51559;DHT22;61650;48.882;2.092;2023-03-04T08:33:56;1.00;82.50
51559;DHT22;61650;48.882;2.092;2023-03-04T08:36:22;1.20;81.90
51559;DHT22;61650;48.882;2.092;2023-03-04T08:38:47;1.30;81.20
51559;DHT22;61650;48.882;2.092;2023-03-04T08:41:13;1.40;81.20
51559;DHT22;61650;48.882;2.092;2023-03-04T08:43:40;1.50;80.40
51559;DHT22;61650;48.882;2.092;2023-03-04T08:46:05;1.60;80.20
51559;DHT22;61650;48.882;2.092;2023-03-04T08:48:31;1.70;79.90
51559;DHT22;61650;48.882;2.092;2023-03-04T08:50:57;1.80;79.30
51559;DHT22;61650;48.882;2.092;2023-03-04T08:53:23;1.90;77.90
51559;DHT22;61650;48.882;2.092;2023-03-04T08:55:50;2.00;78.10
51559;DHT22;61650;48.882;2.092;2023-03-04T08:58:16;2.00;77.50
51559;DHT22;61650;48.882;2.092;2023-03-04T09:00:44;2.10;77.40
51559;DHT22;61650;48.882;2.092;2023-03-04T09:03:13;2.10;76.60
51559;DHT22;61650;48.882;2.092;2023-03-04T09:05:39;2.10;76.00
51559;DHT22;61650;48.882;2.092;2023-03-04T09:08:06;2.20;76.00
51559;DHT22;61650;48.882;2.092;2023-03-04T09:10:32;2.20;76.00
51559;DHT22;61650;48.882;2.092;2023-03-04T09:12:57;2.20;76.30
51559;DHT22;61650;48.882;2.092;2023-03-04T09:15:23;2.20;76.40
51559;DHT22;61650;48.882;2.092;2023-03-04T09:17:48;2.30;76.40
51559;DHT22;61650;48.882;2.092;2023-03-04T09:20:14;2.40;76.10
51559;DHT22;61650;48.882;2.092;2023-03-04T09:22:41;2.40;76.00
51559;DHT22;61650;48.882;2.092;2023-03-04T09:25:07;2.50;76.10
51559;DHT22;61650;48.882;2.092;2023-03-04T09:27:33;2.50;75.50
51559;DHT22;61650;48.882;2.092;2023-03-04T09:29:58;2.50;74.50
51559;DHT22;61650;48.882;2.092;2023-03-04T09:32:24;2.50;75.70
51559;DHT22;61650;48.882;2.092;2023-03-04T09:34:50;2.60;75.60
51559;DHT22;61650;48.882;2.092;2023-03-04T09:37:15;2.70;75.10
51559;DHT22;61650;48.882;2.092;2023-03-04T09:39:41;2.70;74.60
51559;DHT22;61650;48.882;2.092;2023-03-04T09:42:17;2.80;73.60
51559;DHT22;61650;48.882;2.092;2023-03-04T09:44:46;2.80;73.70
51559;DHT22;61650;48.882;2.092;2023-03-04T09:47:14;2.80;72.70
51559;DHT22;61650;48.882;2.092;2023-03-04T09:49:44;2.80;72.70
51559;DHT22;61650;48.882;2.092;2023-03-04T09:52:46;2.90;73.30
51559;DHT22;61650;48.882;2.092;2023-03-04T09:55:32;3.00;73.20
51559;DHT22;61650;48.882;2.092;2023-03-04T10:00:42;3.00;73.20
51559;DHT22;61650;48.882;2.092;2023-03-04T10:11:00;3.20;72.40
51559;DHT22;61650;48.882;2.092;2023-03-04T10:13:52;3.30;72.20
51559;DHT22;61650;48.882;2.092;2023-03-04T10:16:24;3.30;72.40
51559;DHT22;61650;48.882;2.092;2023-03-04T10:18:57;3.40;72.50
51559;DHT22;61650;48.882;2.092;2023-03-04T10:21:35;3.40;71.80
51559;DHT22;61650;48.882;2.092;2023-03-04T10:24:14;3.50;72.30
51559;DHT22;61650;48.882;2.092;2023-03-04T10:26:45;3.50;71.70
51559;DHT22;61650;48.882;2.092;2023-03-04T10:29:15;3.60;71.60
51559;DHT22;61650;48.882;2.092;2023-03-04T10:31:41;3.70;71.80
51559;DHT22;61650;48.882;2.092;2023-03-04T10:34:13;3.70;70.90
51559;DHT22;61650;48.882;2.092;2023-03-04T10:39:21;3.80;70.70
51559;DHT22;61650;48.882;2.092;2023-03-04T10:42:21;3.80;70.40
51559;DHT22;61650;48.882;2.092;2023-03-04T10:44:56;3.90;70.40
51559;DHT22;61650;48.882;2.092;2023-03-04T10:47:24;3.90;69.80
51559;DHT22;61650;48.882;2.092;2023-03-04T10:49:55;3.90;70.40
51559;DHT22;61650;48.882;2.092;2023-03-04T10:54:59;4.00;70.00
51559;DHT22;61650;48.882;2.092;2023-03-04T10:57:38;4.10;70.10
51559;DHT22;61650;48.882;2.092;2023-03-04T11:02:45;4.10;69.30
51559;DHT22;61650;48.882;2.092;2023-03-04T11:05:16;4.10;69.50
51559;DHT22;61650;48.882;2.092;2023-03-04T11:10:37;4.20;69.80
51559;DHT22;61650;48.882;2.092;2023-03-04T11:13:15;4.30;69.70
51559;DHT22;61650;48.882;2.092;2023-03-04T11:15:49;4.30;69.00
51559;DHT22;61650;48.882;2.092;2023-03-04T11:18:16;4.40;68.90
51559;DHT22;61650;48.882;2.092;2023-03-04T11:20:47;4.50;68.60
51559;DHT22;61650;48.882;2.092;2023-03-04T11:25:57;4.50;68.90
51559;DHT22;61650;48.882;2.092;2023-03-04T11:28:35;4.60;68.70
51559;DHT22;61650;48.882;2.092;2023-03-04T11:31:09;4.60;68.60
51559;DHT22;61650;48.882;2.092;2023-03-04T11:33:42;4.70;68.90
51559;DHT22;61650;48.882;2.092;2023-03-04T11:39:18;4.80;68.40
51559;DHT22;61650;48.882;2.092;2023-03-04T11:41:55;4.80;67.70
51559;DHT22;61650;48.882;2.092;2023-03-04T11:44:23;4.80;67.70
51559;DHT22;61650;48.882;2.092;2023-03-04T11:47:18;4.70;67.80
51559;DHT22;61650;48.882;2.092;2023-03-04T11:59:10;4.80;67.30
51559;DHT22;61650;48.882;2.092;2023-03-04T12:07:44;4.90;67.50
51559;DHT22;61650;48.882;2.092;2023-03-04T12:16:03;5.00;66.90
51559;DHT22;61650;48.882;2.092;2023-03-04T12:22:04;5.00;67.30
51559;DHT22;61650;48.882;2.092;2023-03-04T12:30:20;5.10;66.50
51559;DHT22;61650;48.882;2.092;2023-03-04T12:41:30;5.10;66.10
51559;DHT22;61650;48.882;2.092;2023-03-04T12:52:05;5.10;66.00
51559;DHT22;61650;48.882;2.092;2023-03-04T12:54:50;5.10;66.40
51559;DHT22;61650;48.882;2.092;2023-03-04T12:57:26;5.10;66.50
51559;DHT22;61650;48.882;2.092;2023-03-04T13:01:02;5.10;66.50
51559;DHT22;61650;48.882;2.092;2023-03-04T13:03:18;5.20;66.80
51559;DHT22;61650;48.882;2.092;2023-03-04T13:08:57;5.20;66.40
51559;DHT22;61650;48.882;2.092;2023-03-04T13:14:06;5.40;65.80
51559;DHT22;61650;48.882;2.092;2023-03-04T13:16:42;5.40;65.80
51559;DHT22;61650;48.882;2.092;2023-03-04T13:56:36;5.50;65.10
51559;DHT22;61650;48.882;2.092;2023-03-04T14:04:31;5.50;65.30
51559;DHT22;61650;48.882;2.092;2023-03-04T14:07:00;5.50;64.80
51559;DHT22;61650;48.882;2.092;2023-03-04T14:09:28;5.50;65.10
51559;DHT22;61650;48.882;2.092;2023-03-04T14:12:12;5.50;64.90
51559;DHT22;61650;48.882;2.092;2023-03-04T14:17:16;5.50;64.70
51559;DHT22;61650;48.882;2.092;2023-03-04T14:19:45;5.50;64.60
51559;DHT22;61650;48.882;2.092;2023-03-04T14:22:24;5.60;64.70
51559;DHT22;61650;48.882;2.092;2023-03-04T14:27:24;5.60;65.30
51559;DHT22;61650;48.882;2.092;2023-03-04T14:29:56;5.70;64.20
51559;DHT22;61650;48.882;2.092;2023-03-04T14:32:23;5.70;64.40
51559;DHT22;61650;48.882;2.092;2023-03-04T14:34:49;5.70;63.10
51559;DHT22;61650;48.882;2.092;2023-03-04T14:37:25;5.70;63.90
51559;DHT22;61650;48.882;2.092;2023-03-04T14:39:55;5.70;64.10
51559;DHT22;61650;48.882;2.092;2023-03-04T14:42:24;5.70;63.90
51559;DHT22;61650;48.882;2.092;2023-03-04T14:44:54;5.70;63.80
51559;DHT22;61650;48.882;2.092;2023-03-04T14:47:27;5.70;63.70
51559;DHT22;61650;48.882;2.092;2023-03-04T14:49:56;5.80;63.20
51559;DHT22;61650;48.882;2.092;2023-03-04T14:52:42;5.80;63.00
51559;DHT22;61650;48.882;2.092;2023-03-04T14:57:41;5.80;63.00
51559;DHT22;61650;48.882;2.092;2023-03-04T15:02:51;5.80;62.90
51559;DHT22;61650;48.882;2.092;2023-03-04T15:05:26;5.80;62.60
51559;DHT22;61650;48.882;2.092;2023-03-04T15:08:33;5.80;63.00
51559;DHT22;61650;48.882;2.092;2023-03-04T15:11:02;5.80;62.80
51559;DHT22;61650;48.882;2.092;2023-03-04T15:13:41;5.70;62.90
51559;DHT22;61650;48.882;2.092;2023-03-04T15:16:08;5.80;63.50
51559;DHT22;61650;48.882;2.092;2023-03-04T15:18:34;5.80;63.40
51559;DHT22;61650;48.882;2.092;2023-03-04T15:21:01;5.80;63.30
51559;DHT22;61650;48.882;2.092;2023-03-04T15:23:29;5.80;63.40
51559;DHT22;61650;48.882;2.092;2023-03-04T15:26:00;5.80;63.60
51559;DHT22;61650;48.882;2.092;2023-03-04T15:28:33;5.80;63.40
51559;DHT22;61650;48.882;2.092;2023-03-04T15:30:59;5.80;63.20
51559;DHT22;61650;48.882;2.092;2023-03-04T15:33:24;5.80;63.10
51559;DHT22;61650;48.882;2.092;2023-03-04T15:35:59;5.70;62.80
51559;DHT22;61650;48.882;2.092;2023-03-04T15:38:26;5.80;62.90
51559;DHT22;61650;48.882;2.092;2023-03-04T15:40:53;5.80;62.20
51559;DHT22;61650;48.882;2.092;2023-03-04T15:43:21;5.80;62.30
51559;DHT22;61650;48.882;2.092;2023-03-04T15:45:48;5.80;62.60
51559;DHT22;61650;48.882;2.092;2023-03-04T15:48:15;5.80;62.00
51559;DHT22;61650;48.882;2.092;2023-03-04T15:50:42;5.80;62.10
51559;DHT22;61650;48.882;2.092;2023-03-04T15:55:57;5.70;61.30
51559;DHT22;61650;48.882;2.092;2023-03-04T15:58:23;5.80;61.50
51559;DHT22;61650;48.882;2.092;2023-03-04T16:00:49;5.70;61.60
51559;DHT22;61650;48.882;2.092;2023-03-04T16:03:17;5.70;61.40
51559;DHT22;61650;48.882;2.092;2023-03-04T16:05:45;5.70;61.60
51559;DHT22;61650;48.882;2.092;2023-03-04T16:08:16;5.70;61.60
51559;DHT22;61650;48.882;2.092;2023-03-04T16:10:43;5.70;61.10
51559;DHT22;61650;48.882;2.092;2023-03-04T16:13:14;5.70;61.50
51559;DHT22;61650;48.882;2.092;2023-03-04T16:15:41;5.70;61.90
51559;DHT22;61650;48.882;2.092;2023-03-04T16:18:08;5.70;62.00
51559;DHT22;61650;48.882;2.092;2023-03-04T16:20:34;5.70;61.80
51559;DHT22;61650;48.882;2.092;2023-03-04T16:23:01;5.70;61.90
51559;DHT22;61650;48.882;2.092;2023-03-04T16:25:27;5.60;62.00
51559;DHT22;61650;48.882;2.092;2023-03-04T16:27:54;5.60;62.40
51559;DHT22;61650;48.882;2.092;2023-03-04T16:30:22;5.60;62.60
51559;DHT22;61650;48.882;2.092;2023-03-04T16:32:48;5.60;62.50
51559;DHT22;61650;48.882;2.092;2023-03-04T16:35:15;5.60;62.60
51559;DHT22;61650;48.882;2.092;2023-03-04T16:37:42;5.60;62.50
51559;DHT22;61650;48.882;2.092;2023-03-04T16:40:11;5.60;62.50
51559;DHT22;61650;48.882;2.092;2023-03-04T16:42:38;5.60;63.00
51559;DHT22;61650;48.882;2.092;2023-03-04T16:45:05;5.60;62.80
51559;DHT22;61650;48.882;2.092;2023-03-04T16:47:31;5.60;63.00
51559;DHT22;61650;48.882;2.092;2023-03-04T16:49:58;5.60;63.30
51559;DHT22;61650;48.882;2.092;2023-03-04T16:52:29;5.60;63.20
51559;DHT22;61650;48.882;2.092;2023-03-04T16:54:55;5.60;63.30
51559;DHT22;61650;48.882;2.092;2023-03-04T16:57:22;5.50;63.00
51559;DHT22;61650;48.882;2.092;2023-03-04T16:59:48;5.50;63.00
51559;DHT22;61650;48.882;2.092;2023-03-04T17:02:19;5.50;62.70
51559;DHT22;61650;48.882;2.092;2023-03-04T17:04:48;5.50;62.80
51559;DHT22;61650;48.882;2.092;2023-03-04T17:07:15;5.50;62.90
51559;DHT22;61650;48.882;2.092;2023-03-04T17:09:41;5.50;63.20
51559;DHT22;61650;48.882;2.092;2023-03-04T17:12:09;5.50;63.20
51559;DHT22;61650;48.882;2.092;2023-03-04T17:14:35;5.50;63.40
51559;DHT22;61650;48.882;2.092;2023-03-04T17:17:02;5.50;62.80
51559;DHT22;61650;48.882;2.092;2023-03-04T17:19:28;5.50;62.90
51559;DHT22;61650;48.882;2.092;2023-03-04T17:21:57;5.40;63.10
51559;DHT22;61650;48.882;2.092;2023-03-04T17:24:23;5.40;63.30
51559;DHT22;61650;48.882;2.092;2023-03-04T17:26:49;5.40;63.40
51559;DHT22;61650;48.882;2.092;2023-03-04T17:29:15;5.40;63.40
51559;DHT22;61650;48.882;2.092;2023-03-04T17:31:41;5.40;63.70
51559;DHT22;61650;48.882;2.092;2023-03-04T17:34:06;5.40;63.60
51559;DHT22;61650;48.882;2.092;2023-03-04T17:36:32;5.40;63.40
51559;DHT22;61650;48.882;2.092;2023-03-04T17:39:03;5.40;63.80
51559;DHT22;61650;48.882;2.092;2023-03-04T17:41:29;5.40;63.70
51559;DHT22;61650;48.882;2.092;2023-03-04T17:43:55;5.40;63.80
51559;DHT22;61650;48.882;2.092;2023-03-04T17:46:24;5.40;63.80
51559;DHT22;61650;48.882;2.092;2023-03-04T17:48:52;5.30;63.70
51559;DHT22;61650;48.882;2.092;2023-03-04T17:51:31;5.40;63.60
51559;DHT22;61650;48.882;2.092;2023-03-04T17:53:57;5.40;63.90
51559;DHT22;61650;48.882;2.092;2023-03-04T17:56:26;5.40;63.90
51559;DHT22;61650;48.882;2.092;2023-03-04T17:58:54;5.40;64.10